Time;durP1;ratioP1;P1;durP2;ratioP2;P2;SDS_P1;SDS_P2;PMS_P1;PMS_P2;Temp;Humidity;BMP_temperature;BMP_pressure;BME280_temperature;BME280_humidity;BME280_pressure;Samples;Min_cycle;Max_cycle;Signal;HPM_P1;HPM_P2
2022/06/26 00:00:46;;;;;;;16.30;12.40;;;19.40;99.90;;;;;;5032519;28;20057;-60
2022/06/26 00:03:12;;;;;;;16.30;11.90;;;19.50;99.90;;;;;;5032516;28;20042;-62
2022/06/26 00:05:38;;;;;;;18.92;11.93;;;19.50;99.90;;;;;;5032537;28;20473;-62
2022/06/26 00:08:05;;;;;;;18.75;12.70;;;19.50;99.90;;;;;;5032726;28;20053;-60
2022/06/26 00:10:31;;;;;;;18.38;12.65;;;19.50;99.90;;;;;;5032792;28;20374;-60
2022/06/26 00:12:56;;;;;;;19.13;12.40;;;19.50;99.90;;;;;;5032440;28;20088;-62
2022/06/26 00:15:22;;;;;;;20.95;13.10;;;19.40;99.90;;;;;;5032384;28;20052;-61
2022/06/26 00:17:48;;;;;;;17.45;12.82;;;19.50;99.90;;;;;;5032351;28;20084;-61
2022/06/26 00:20:14;;;;;;;21.33;11.77;;;19.10;99.90;;;;;;5032417;28;20052;-61
2022/06/26 00:22:40;;;;;;;19.42;12.82;;;19.10;99.90;;;;;;5032574;28;20048;-61
2022/06/26 00:25:06;;;;;;;16.48;11.65;;;19.00;99.90;;;;;;5032265;28;20024;-61
2022/06/26 00:27:32;;;;;;;15.80;11.73;;;19.10;99.90;;;;;;5032134;28;20477;-61
2022/06/26 00:29:57;;;;;;;14.13;10.27;;;19.30;99.90;;;;;;5032090;28;20094;-61
2022/06/26 00:32:23;;;;;;;13.57;10.43;;;19.30;99.90;;;;;;5032156;28;20424;-61
2022/06/26 00:34:49;;;;;;;15.93;11.40;;;19.30;99.90;;;;;;5032309;28;20029;-61
2022/06/26 00:37:15;;;;;;;18.50;11.88;;;19.20;99.90;;;;;;5032179;28;20030;-61
2022/06/26 00:39:40;;;;;;;15.68;11.00;;;19.30;99.90;;;;;;5031952;28;20083;-62
2022/06/26 00:42:06;;;;;;;17.02;11.05;;;19.20;99.90;;;;;;5031970;28;20056;-61
2022/06/26 00:44:32;;;;;;;19.75;11.68;;;19.20;99.90;;;;;;5031961;28;20030;-61
2022/06/26 00:46:58;;;;;;;30.90;13.45;;;19.20;99.90;;;;;;5031748;28;20041;-61
2022/06/26 00:49:23;;;;;;;16.70;11.00;;;18.90;99.90;;;;;;5031720;28;20021;-62
2022/06/26 00:51:55;;;;;;;13.95;10.48;;;18.90;99.90;;;;;;5031712;28;20381;-61
2022/06/26 00:54:24;;;;;;;21.30;10.85;;;19.00;99.90;;;;;;5031648;28;20370;-61
2022/06/26 00:56:50;;;;;;;18.98;11.73;;;19.00;99.90;;;;;;5031581;28;20029;-61
2022/06/26 00:59:16;;;;;;;15.48;11.70;;;18.90;99.90;;;;;;5031444;28;20046;-61
2022/06/26 01:01:41;;;;;;;16.42;12.05;;;19.00;99.90;;;;;;5031549;28;20496;-61
2022/06/26 01:04:07;;;;;;;18.02;11.68;;;18.90;99.90;;;;;;5031648;28;20262;-61
2022/06/26 01:06:35;;;;;;;17.42;11.82;;;18.80;99.90;;;;;;5030723;28;20021;-60
2022/06/26 01:09:00;;;;;;;;;;;18.90;99.90;;;;;;5031966;28;20132;-61
2022/06/26 01:11:27;;;;;;;14.13;11.20;;;18.90;99.90;;;;;;5030053;28;19995;-61
2022/06/26 01:13:55;;;;;;;12.90;10.40;;;18.70;99.90;;;;;;5031283;28;20029;-61
2022/06/26 01:16:22;;;;;;;15.85;10.90;;;18.60;99.90;;;;;;5031221;28;20025;-61
2022/06/26 01:18:49;;;;;;;;;;;18.60;99.90;;;;;;5030330;28;20405;-61
2022/06/26 01:21:17;;;;;;;16.33;10.82;;;18.50;99.90;;;;;;5031294;28;20007;-61
2022/06/26 01:23:42;;;;;;;16.27;10.50;;;18.60;99.90;;;;;;5031267;28;20029;-61
2022/06/26 01:26:08;;;;;;;19.27;10.18;;;18.70;99.90;;;;;;5031029;28;20431;-61
2022/06/26 01:28:34;;;;;;;15.15;10.02;;;18.60;99.90;;;;;;5030902;28;20032;-61
2022/06/26 01:31:00;;;;;;;13.50;10.18;;;18.70;99.90;;;;;;5030947;28;20029;-62
2022/06/26 01:33:26;;;;;;;14.85;10.20;;;18.70;99.90;;;;;;5031179;28;20026;-61
2022/06/26 01:35:51;;;;;;;15.10;10.43;;;18.70;99.90;;;;;;5030971;28;20033;-61
2022/06/26 01:38:21;;;;;;;15.48;9.88;;;18.70;99.90;;;;;;5030892;28;20079;-61
2022/06/26 01:40:51;;;;;;;15.00;11.50;;;18.70;99.90;;;;;;5030876;28;20078;-61
2022/06/26 01:43:31;;;;;;;16.40;10.95;;;18.70;99.90;;;;;;5030679;28;20037;-61
2022/06/26 01:45:58;;;;;;;17.70;10.77;;;18.60;99.90;;;;;;5031004;28;20036;-61
2022/06/26 01:48:24;;;;;;;13.38;10.93;;;18.30;99.90;;;;;;5030826;28;20025;-62
2022/06/26 01:50:52;;;;;;;15.05;10.70;;;18.20;99.90;;;;;;5030706;28;20135;-62
2022/06/26 01:53:18;;;;;;;18.77;11.40;;;18.10;99.90;;;;;;5030959;28;20040;-62
2022/06/26 01:55:44;;;;;;;15.73;10.65;;;18.00;99.90;;;;;;5030464;28;20481;-62
2022/06/26 01:58:10;;;;;;;15.23;10.73;;;18.10;99.90;;;;;;5030623;28;20036;-61
2022/06/26 02:00:39;;;;;;;12.63;10.10;;;18.10;99.90;;;;;;5030302;28;20049;-61
2022/06/26 02:03:06;;;;;;;15.75;10.38;;;18.20;99.90;;;;;;5030434;28;20044;-61
2022/06/26 02:05:32;;;;;;;17.63;10.30;;;18.20;99.90;;;;;;5030468;28;20033;-61
2022/06/26 02:07:58;;;;;;;14.25;10.07;;;18.30;99.90;;;;;;5030288;28;20440;-61
2022/06/26 02:15:55;;;;;;;13.23;9.88;;;18.40;99.90;;;;;;5030616;28;20500;-62
2022/06/26 02:18:21;;;;;;;14.77;10.57;;;18.20;99.90;;;;;;5029995;28;20033;-61
2022/06/26 02:20:47;;;;;;;12.48;9.63;;;18.20;99.90;;;;;;5030090;28;20045;-62
2022/06/26 02:23:13;;;;;;;14.50;10.80;;;18.20;99.90;;;;;;5030399;28;20485;-62
2022/06/26 02:25:39;;;;;;;13.35;10.30;;;18.30;99.90;;;;;;5030334;28;20049;-62
2022/06/26 02:28:06;;;;;;;16.80;10.40;;;18.20;99.90;;;;;;5030153;28;20465;-62
2022/06/26 02:30:32;;;;;;;13.68;10.13;;;18.30;99.90;;;;;;5030203;28;20024;-62
2022/06/26 02:32:58;;;;;;;12.93;10.40;;;18.20;99.90;;;;;;5030045;28;20029;-62
2022/06/26 02:35:24;;;;;;;12.20;9.18;;;18.20;99.90;;;;;;5030172;28;20030;-62
2022/06/26 02:37:51;;;;;;;17.25;10.38;;;18.20;99.90;;;;;;5030082;28;20025;-62
2022/06/26 02:40:19;;;;;;;15.23;10.30;;;18.10;99.90;;;;;;5030224;28;20408;-62
2022/06/26 02:42:45;;;;;;;13.32;10.02;;;18.00;99.90;;;;;;5030045;28;20119;-62
2022/06/26 02:45:11;;;;;;;12.63;9.63;;;17.90;99.90;;;;;;5030182;28;20021;-62
2022/06/26 02:47:38;;;;;;;11.97;9.47;;;17.90;99.90;;;;;;5029913;28;20032;-62
2022/06/26 02:50:04;;;;;;;20.40;9.98;;;17.90;99.90;;;;;;5029973;28;20057;-62
2022/06/26 02:52:30;;;;;;;15.25;10.52;;;18.00;99.90;;;;;;5029892;28;20041;-62
2022/06/26 02:54:56;;;;;;;15.15;10.70;;;18.00;99.90;;;;;;5029976;28;20079;-62
2022/06/26 02:57:23;;;;;;;12.88;10.05;;;18.00;99.90;;;;;;5030026;28;20025;-62
2022/06/26 02:59:49;;;;;;;16.40;11.32;;;18.00;99.90;;;;;;5029685;28;20054;-62
2022/06/26 03:02:15;;;;;;;16.77;11.25;;;18.00;99.90;;;;;;5029746;28;20041;-62
2022/06/26 03:04:42;;;;;;;17.38;11.32;;;17.90;99.90;;;;;;5030057;28;20021;-62
2022/06/26 03:07:08;;;;;;;17.80;11.82;;;17.90;99.90;;;;;;5029873;28;20030;-62
2022/06/26 03:09:34;;;;;;;20.15;10.25;;;17.90;99.90;;;;;;5029572;28;20033;-61
2022/06/26 03:11:59;;;;;;;15.60;10.15;;;17.90;99.90;;;;;;5028745;28;20049;-61
2022/06/26 03:14:25;;;;;;;13.55;10.55;;;17.90;99.90;;;;;;5045729;28;20025;-61
2022/06/26 03:16:51;;;;;;;14.93;11.23;;;17.80;99.90;;;;;;5049679;28;20033;-61
2022/06/26 03:19:17;;;;;;;13.00;10.50;;;17.80;99.90;;;;;;5049594;28;20033;-61
2022/06/26 03:21:43;;;;;;;15.38;10.77;;;17.80;99.90;;;;;;5049720;28;20087;-62
2022/06/26 03:24:08;;;;;;;16.20;12.32;;;17.90;99.90;;;;;;5049655;28;20029;-61
2022/06/26 03:26:36;;;;;;;16.02;11.10;;;17.70;99.90;;;;;;5049619;28;20036;-61
2022/06/26 03:29:06;;;;;;;21.70;12.07;;;17.80;99.90;;;;;;5049346;28;20029;-61
2022/06/26 03:31:33;;;;;;;15.20;11.00;;;17.80;99.90;;;;;;5053193;28;20021;-61
2022/06/26 03:33:58;;;;;;;16.08;11.02;;;17.90;99.90;;;;;;5053477;28;20029;-61
2022/06/26 03:36:25;;;;;;;15.10;11.57;;;17.80;99.90;;;;;;5053147;28;20470;-62
2022/06/26 03:38:51;;;;;;;15.20;11.43;;;17.60;99.90;;;;;;5053213;28;20032;-62
2022/06/26 03:41:18;;;;;;;15.65;12.13;;;17.80;99.90;;;;;;5053071;28;20025;-63
2022/06/26 03:43:43;;;;;;;15.88;12.70;;;17.80;99.90;;;;;;5053063;28;20033;-62
2022/06/26 03:46:09;;;;;;;17.15;11.73;;;17.90;99.90;;;;;;5052790;28;20032;-62
2022/06/26 03:48:35;;;;;;;13.93;11.45;;;18.00;99.90;;;;;;5053036;28;20025;-62
2022/06/26 03:51:01;;;;;;;16.65;12.30;;;17.90;99.90;;;;;;5051719;28;20396;-63
2022/06/26 03:53:28;;;;;;;16.67;12.27;;;18.00;99.90;;;;;;5052914;28;20032;-62
2022/06/26 03:55:54;;;;;;;18.08;12.43;;;17.90;99.90;;;;;;5052852;28;20091;-62
2022/06/26 03:58:19;;;;;;;17.05;11.85;;;17.80;99.90;;;;;;5052720;28;20035;-62
2022/06/26 04:00:45;;;;;;;16.10;12.85;;;17.80;99.90;;;;;;5052569;28;20532;-63
2022/06/26 04:03:11;;;;;;;17.00;11.50;;;17.80;99.90;;;;;;5052842;28;20506;-63
2022/06/26 04:05:39;;;;;;;15.95;11.43;;;17.80;99.90;;;;;;5051197;28;20057;-62
2022/06/26 04:08:06;;;;;;;16.80;11.55;;;17.80;99.90;;;;;;5052728;28;20633;-62
2022/06/26 04:10:33;;;;;;;17.95;11.45;;;17.80;99.90;;;;;;5052667;28;20028;-63
2022/06/26 04:13:04;;;;;;;15.83;11.70;;;17.90;99.90;;;;;;5052445;28;20086;-63
2022/06/26 04:15:32;;;;;;;16.08;11.68;;;17.90;99.90;;;;;;5052533;28;20025;-63
2022/06/26 04:17:58;;;;;;;;;;;18.00;99.90;;;;;;5053172;28;20052;-63
2022/06/26 04:20:24;;;;;;;14.82;11.23;;;18.00;99.90;;;;;;5052591;28;19973;-63
2022/06/26 04:23:02;;;;;;;18.27;13.13;;;18.20;99.90;;;;;;5050988;28;20043;-64
2022/06/26 04:25:29;;;;;;;17.13;11.93;;;18.30;99.90;;;;;;5052169;28;20144;-63
2022/06/26 04:27:56;;;;;;;15.82;11.10;;;18.40;99.90;;;;;;5052234;28;20142;-63
2022/06/26 04:30:22;;;;;;;15.68;11.35;;;18.50;99.90;;;;;;5052622;28;20106;-63
2022/06/26 04:32:47;;;;;;;17.30;12.40;;;18.60;99.90;;;;;;5052202;28;20492;-63
2022/06/26 04:35:14;;;;;;;17.83;12.35;;;18.60;99.90;;;;;;5052590;28;20522;-63
2022/06/26 04:37:40;;;;;;;15.82;11.65;;;18.70;99.90;;;;;;5052356;28;20024;-64
2022/06/26 04:40:09;;;;;;;17.48;12.02;;;18.80;99.90;;;;;;5052323;28;20036;-63
2022/06/26 04:42:35;;;;;;;15.85;11.68;;;18.90;99.90;;;;;;5051804;28;20030;-64
2022/06/26 04:45:00;;;;;;;15.20;11.27;;;19.00;99.90;;;;;;5052030;28;20525;-63
2022/06/26 04:47:26;;;;;;;15.57;11.35;;;19.10;99.90;;;;;;5051773;28;20029;-63
2022/06/26 04:49:52;;;;;;;13.82;11.18;;;19.20;99.90;;;;;;5051862;28;20048;-63
2022/06/26 04:52:17;;;;;;;22.45;13.18;;;19.30;99.90;;;;;;5051764;28;20455;-61
2022/06/26 04:54:44;;;;;;;16.38;12.32;;;19.40;99.90;;;;;;5051942;28;20051;-62
2022/06/26 04:57:10;;;;;;;15.10;12.10;;;19.50;99.90;;;;;;5051586;28;20497;-62
2022/06/26 04:59:35;;;;;;;20.50;12.25;;;19.50;99.90;;;;;;5051673;28;20059;-62
2022/06/26 05:02:02;;;;;;;15.85;12.52;;;19.70;99.90;;;;;;5051658;28;20503;-62
2022/06/26 05:04:27;;;;;;;16.07;11.53;;;19.80;99.90;;;;;;5051776;28;20137;-62
2022/06/26 05:06:53;;;;;;;18.60;12.43;;;19.90;99.90;;;;;;5051583;28;20147;-63
2022/06/26 05:09:19;;;;;;;16.63;11.73;;;20.00;99.90;;;;;;5051227;28;20663;-63
2022/06/26 05:11:45;;;;;;;15.52;11.93;;;20.00;99.90;;;;;;5051386;28;20539;-62
2022/06/26 05:14:11;;;;;;;15.70;11.88;;;20.10;99.90;;;;;;5051330;28;20057;-63
2022/06/26 05:16:37;;;;;;;13.93;10.70;;;20.20;99.90;;;;;;5051534;28;20029;-62
2022/06/26 05:19:03;;;;;;;15.07;10.63;;;20.30;99.90;;;;;;5051257;28;20043;-62
2022/06/26 05:21:29;;;;;;;13.90;10.27;;;20.40;99.90;;;;;;5051114;28;20037;-62
2022/06/26 05:23:55;;;;;;;18.75;10.02;;;20.40;99.90;;;;;;5051126;28;20029;-63
2022/06/26 05:26:22;;;;;;;13.20;9.40;;;20.40;99.90;;;;;;5051189;28;20021;-62
2022/06/26 05:28:48;;;;;;;15.20;8.60;;;20.60;99.90;;;;;;5050844;28;20033;-63
2022/06/26 05:31:14;;;;;;;12.80;8.25;;;20.60;99.90;;;;;;5051128;28;20079;-62
2022/06/26 05:33:39;;;;;;;10.02;8.23;;;20.70;99.90;;;;;;5050814;28;20033;-62
2022/06/26 05:36:07;;;;;;;12.48;8.10;;;20.80;99.90;;;;;;5051008;28;20032;-62
2022/06/26 05:38:33;;;;;;;12.25;7.65;;;20.80;99.90;;;;;;5051072;28;20033;-62
2022/06/26 05:40:59;;;;;;;12.30;8.13;;;20.90;99.90;;;;;;5050898;28;20104;-62
2022/06/26 05:43:25;;;;;;;9.52;6.43;;;21.00;99.90;;;;;;5050939;28;20154;-62
2022/06/26 05:45:51;;;;;;;13.15;8.10;;;21.10;99.90;;;;;;5051005;28;20124;-62
2022/06/26 05:48:17;;;;;;;11.05;8.82;;;21.20;99.90;;;;;;5050720;28;20035;-62
2022/06/26 05:50:43;;;;;;;13.20;7.82;;;21.20;99.90;;;;;;5050692;28;20024;-61
2022/06/26 05:53:09;;;;;;;15.68;8.55;;;21.30;99.90;;;;;;5050208;28;20496;-62
2022/06/26 05:55:35;;;;;;;11.02;8.10;;;21.40;99.90;;;;;;5050769;28;20510;-62
2022/06/26 05:58:01;;;;;;;12.18;8.15;;;21.50;99.90;;;;;;5050489;28;20130;-62
2022/06/26 06:00:27;;;;;;;11.25;8.27;;;21.40;99.90;;;;;;5050471;28;20447;-62
2022/06/26 06:02:53;;;;;;;10.52;7.95;;;21.50;99.90;;;;;;5050374;28;20086;-62
2022/06/26 06:05:18;;;;;;;10.65;7.57;;;21.60;99.90;;;;;;5050483;28;20503;-62
2022/06/26 06:07:44;;;;;;;12.02;8.15;;;21.70;99.90;;;;;;5050418;28;20060;-62
2022/06/26 06:10:10;;;;;;;12.13;9.02;;;21.80;99.90;;;;;;5050664;28;20444;-61
2022/06/26 06:12:37;;;;;;;12.10;7.78;;;21.80;99.90;;;;;;5050504;28;20025;-62
2022/06/26 06:15:03;;;;;;;11.63;7.55;;;21.90;99.90;;;;;;5049053;28;20044;-62
2022/06/26 06:17:40;;;;;;;10.40;8.05;;;21.90;99.90;;;;;;5050413;28;20423;-62
2022/06/26 06:20:19;;;;;;;12.50;9.07;;;21.90;99.90;;;;;;5050275;28;20032;-62
2022/06/26 06:22:54;;;;;;;11.57;8.00;;;21.90;99.90;;;;;;5050234;28;20112;-62
2022/06/26 06:25:21;;;;;;;11.80;8.20;;;21.90;99.90;;;;;;5050502;28;20021;-62
2022/06/26 06:27:47;;;;;;;12.00;8.70;;;22.00;99.90;;;;;;5050304;28;20029;-63
2022/06/26 06:30:14;;;;;;;10.32;7.93;;;22.10;99.90;;;;;;5049098;28;20028;-62
2022/06/26 06:32:41;;;;;;;12.57;8.15;;;22.10;99.90;;;;;;5050085;28;20108;-62
2022/06/26 06:35:09;;;;;;;11.50;7.72;;;22.20;99.90;;;;;;5050352;28;20036;-62
2022/06/26 06:37:35;;;;;;;13.15;8.38;;;22.30;99.90;;;;;;5050075;28;20111;-62
2022/06/26 06:40:01;;;;;;;9.65;7.68;;;22.40;99.90;;;;;;5049958;28;20033;-63
2022/06/26 06:42:26;;;;;;;11.40;7.82;;;22.50;99.90;;;;;;5050031;28;20056;-63
2022/06/26 06:44:52;;;;;;;10.98;8.27;;;22.70;99.90;;;;;;5049955;28;20477;-62
2022/06/26 06:47:18;;;;;;;13.20;7.75;;;22.80;99.90;;;;;;5049851;28;20021;-60
2022/06/26 06:49:43;;;;;;;10.15;7.28;;;22.80;99.90;;;;;;5050356;28;20025;-62
2022/06/26 06:52:09;;;;;;;14.35;7.75;;;22.90;99.90;;;;;;5048626;28;20090;-62
2022/06/26 06:54:35;;;;;;;17.08;7.70;;;23.00;99.90;;;;;;5050144;28;20029;-62
2022/06/26 06:57:01;;;;;;;9.63;7.32;;;23.10;99.90;;;;;;5049964;28;20431;-63
2022/06/26 06:59:27;;;;;;;8.55;6.63;;;23.10;99.90;;;;;;5049795;28;20049;-63
2022/06/26 07:01:52;;;;;;;15.38;7.60;;;23.20;99.90;;;;;;5049937;28;20496;-60
2022/06/26 07:04:19;;;;;;;10.18;6.75;;;23.30;99.90;;;;;;5051521;28;20036;-61
2022/06/26 07:06:45;;;;;;;7.93;5.93;;;23.30;99.90;;;;;;5053857;28;20055;-62
2022/06/26 07:09:11;;;;;;;7.82;5.65;;;23.40;99.90;;;;;;5052189;28;20536;-61
2022/06/26 07:11:37;;;;;;;9.57;5.35;;;23.50;99.90;;;;;;5053532;28;20037;-61
2022/06/26 07:14:03;;;;;;;9.07;5.80;;;23.50;99.90;;;;;;5053602;28;20071;-61
2022/06/26 07:16:29;;;;;;;8.55;5.55;;;23.60;99.90;;;;;;5053440;28;20138;-61
2022/06/26 07:18:55;;;;;;;11.40;6.35;;;23.70;99.90;;;;;;5053654;28;20036;-61
2022/06/26 07:21:21;;;;;;;8.38;5.93;;;23.80;99.90;;;;;;5044426;28;20033;-60
2022/06/26 07:23:47;;;;;;;12.57;5.93;;;24.20;99.90;;;;;;5039530;28;20056;-61
2022/06/26 07:26:12;;;;;;;7.55;5.22;;;24.30;99.90;;;;;;5041186;28;20025;-62
2022/06/26 07:28:38;;;;;;;26.33;6.30;;;24.30;99.90;;;;;;5042871;28;20415;-61
2022/06/26 07:31:04;;;;;;;9.75;5.85;;;24.50;99.90;;;;;;5042333;28;20528;-61
2022/06/26 07:36:14;;;;;;;7.85;5.05;;;24.50;99.90;;;;;;5041128;28;20384;-63
2022/06/26 07:38:40;;;;;;;6.78;4.72;;;24.60;99.90;;;;;;5043508;28;20026;-61
2022/06/26 07:41:05;;;;;;;9.05;5.47;;;24.80;99.90;;;;;;5044485;28;20064;-62
2022/06/26 07:43:31;;;;;;;7.43;4.70;;;24.70;99.90;;;;;;5043339;28;20033;-62
2022/06/26 07:45:57;;;;;;;6.55;4.60;;;24.70;99.90;;;;;;5038399;28;20133;-62
2022/06/26 07:48:23;;;;;;;8.57;5.10;;;24.70;99.90;;;;;;5034920;28;20582;-61
2022/06/26 07:50:49;;;;;;;8.48;5.40;;;24.80;99.90;;;;;;5040666;28;20034;-62
2022/06/26 07:53:14;;;;;;;6.05;4.60;;;24.80;99.90;;;;;;5042002;28;20051;-61
2022/06/26 07:55:40;;;;;;;9.77;4.75;;;25.00;99.90;;;;;;5042427;28;20025;-61
2022/06/26 07:58:06;;;;;;;6.22;4.85;;;24.90;99.90;;;;;;5040470;28;20696;-62
2022/06/26 08:00:32;;;;;;;9.95;3.95;;;25.00;99.90;;;;;;5041967;28;20060;-62
2022/06/26 08:03:09;;;;;;;8.40;5.47;;;25.10;98.90;;;;;;5041421;28;20037;-61
2022/06/26 08:05:35;;;;;;;8.88;4.72;;;25.20;97.10;;;;;;5040842;28;20483;-61
2022/06/26 08:08:02;;;;;;;7.83;4.47;;;25.30;99.40;;;;;;5040864;28;20124;-61
2022/06/26 08:10:28;;;;;;;7.35;4.07;;;25.40;94.10;;;;;;5042254;28;20021;-61
2022/06/26 08:12:54;;;;;;;7.55;4.03;;;25.50;92.60;;;;;;5040721;28;20362;-61
2022/06/26 08:15:20;;;;;;;8.80;4.93;;;25.50;93.40;;;;;;5040513;28;20021;-60
2022/06/26 08:17:46;;;;;;;8.05;4.55;;;25.70;95.70;;;;;;5042283;28;20035;-60
2022/06/26 08:20:12;;;;;;;7.20;3.97;;;25.80;92.40;;;;;;5039361;28;20025;-59
2022/06/26 08:22:37;;;;;;;8.98;4.28;;;26.00;88.90;;;;;;5041091;28;20053;-60
2022/06/26 08:25:03;;;;;;;9.35;4.82;;;26.10;90.70;;;;;;5041012;28;20028;-60
2022/06/26 08:27:29;;;;;;;8.23;4.57;;;26.50;90.20;;;;;;5039685;28;20143;-60
2022/06/26 08:29:55;;;;;;;13.25;4.75;;;26.50;90.10;;;;;;5043085;28;20033;-60
2022/06/26 08:32:20;;;;;;;6.53;4.43;;;26.60;86.00;;;;;;5040009;28;20086;-60
2022/06/26 08:34:46;;;;;;;6.95;3.75;;;26.40;82.90;;;;;;5041703;28;20053;-59
2022/06/26 08:37:12;;;;;;;8.05;4.03;;;26.60;85.50;;;;;;5041211;28;20108;-59
2022/06/26 08:39:38;;;;;;;6.65;3.97;;;26.60;83.60;;;;;;5040366;28;20523;-60
2022/06/26 08:42:04;;;;;;;7.50;4.15;;;26.60;86.00;;;;;;5040803;28;20060;-59
2022/06/26 08:44:35;;;;;;;10.68;3.58;;;26.70;78.60;;;;;;5040803;28;20025;-59
2022/06/26 08:47:02;;;;;;;7.68;4.00;;;26.90;82.20;;;;;;5039429;28;20453;-60
2022/06/26 08:49:28;;;;;;;9.88;4.15;;;27.10;84.10;;;;;;5041491;28;20036;-59
2022/06/26 08:51:54;;;;;;;7.25;4.53;;;27.10;79.50;;;;;;5040786;28;20389;-59
2022/06/26 08:54:20;;;;;;;8.30;4.20;;;27.20;80.50;;;;;;5040669;28;20024;-60
2022/06/26 08:56:48;;;;;;;5.90;4.33;;;27.30;81.10;;;;;;5041245;28;20017;-59
2022/06/26 08:59:18;;;;;;;7.22;3.60;;;27.40;76.20;;;;;;5040395;28;20025;-58
2022/06/26 09:01:44;;;;;;;7.55;4.43;;;27.50;74.40;;;;;;5039250;28;20385;-60
2022/06/26 09:04:11;;;;;;;8.82;3.58;;;27.30;72.80;;;;;;5033993;28;20388;-61
2022/06/26 09:06:38;;;;;;;10.18;5.32;;;27.60;75.20;;;;;;5031240;28;20385;-59
2022/06/26 09:09:22;;;;;;;5.15;3.20;;;27.50;69.80;;;;;;5031766;28;20108;-59
2022/06/26 09:11:50;;;;;;;5.90;3.45;;;27.70;65.50;;;;;;5047677;28;20089;-60
2022/06/26 09:14:16;;;;;;;7.28;3.50;;;27.60;67.70;;;;;;5039598;28;20098;-56
2022/06/26 09:16:43;;;;;;;4.30;2.83;;;27.60;70.70;;;;;;5039319;28;20477;-54
2022/06/26 09:19:13;;;;;;;;;;;27.60;68.10;;;;;;5040535;28;20021;-54
2022/06/26 09:21:39;;;;;;;5.10;2.95;;;28.00;67.90;;;;;;5040132;28;19990;-54
2022/06/26 09:24:15;;;;;;;9.45;4.50;;;28.00;65.30;;;;;;5040309;28;20029;-54
2022/06/26 09:26:43;;;;;;;5.50;3.22;;;28.00;65.40;;;;;;5037443;28;20029;-54
2022/06/26 09:29:13;;;;;;;13.20;4.53;;;28.10;65.40;;;;;;5037141;28;20025;-54
2022/06/26 09:31:40;;;;;;;7.35;3.67;;;28.20;67.20;;;;;;5043309;28;20021;-54
2022/06/26 09:34:19;;;;;;;8.63;3.53;;;28.40;65.10;;;;;;5039599;28;20055;-54
2022/06/26 09:36:58;;;;;;;7.25;4.07;;;28.60;61.60;;;;;;5037372;28;20021;-54
2022/06/26 09:39:25;;;;;;;10.82;3.38;;;28.60;62.10;;;;;;5043023;28;20032;-54
2022/06/26 09:41:51;;;;;;;5.68;3.65;;;28.60;62.30;;;;;;5040690;28;20057;-55
2022/06/26 09:44:20;;;;;;;6.07;3.42;;;28.50;58.80;;;;;;5039247;28;20090;-55
2022/06/26 09:46:46;;;;;;;6.03;3.63;;;28.50;62.30;;;;;;5040377;28;20481;-53
2022/06/26 09:49:12;;;;;;;5.28;3.60;;;28.60;61.60;;;;;;5038004;28;20037;-55
2022/06/26 09:51:40;;;;;;;10.07;3.75;;;28.90;61.40;;;;;;5042551;28;20013;-55
2022/06/26 09:54:06;;;;;;;5.72;3.53;;;29.00;59.30;;;;;;5048884;28;20064;-55
2022/06/26 09:56:33;;;;;;;10.87;3.80;;;29.00;64.20;;;;;;5050442;28;20021;-55
2022/06/26 09:58:59;;;;;;;4.90;3.33;;;29.00;60.80;;;;;;5050421;28;20260;-54
2022/06/26 10:07:01;;;;;;;6.10;3.72;;;28.80;60.10;;;;;;5050826;28;20075;-54
2022/06/26 10:09:28;;;;;;;7.95;4.00;;;29.00;66.10;;;;;;5049174;28;20021;-54
2022/06/26 10:11:56;;;;;;;;;;;29.40;61.70;;;;;;5050908;28;20373;-54
2022/06/26 10:14:32;;;;;;;5.95;3.85;;;29.60;64.40;;;;;;5050111;28;20652;-54
2022/06/26 10:17:18;;;;;;;7.85;3.67;;;29.70;59.60;;;;;;5049937;28;20112;-55
2022/06/26 10:19:50;;;;;;;5.80;3.50;;;29.70;59.10;;;;;;5049794;28;20128;-54
2022/06/26 10:22:16;;;;;;;6.00;4.07;;;29.70;61.50;;;;;;5050120;28;20036;-55
2022/06/26 10:24:52;;;;;;;5.00;3.40;;;29.70;58.20;;;;;;5050153;28;20025;-54
2022/06/26 10:27:33;;;;;;;15.77;5.85;;;29.70;60.30;;;;;;5050203;28;20034;-54
2022/06/26 10:30:16;;;;;;;7.68;3.63;;;30.40;61.10;;;;;;5040226;28;20535;-54
2022/06/26 10:32:43;;;;;;;12.18;3.83;;;30.10;58.40;;;;;;5039180;28;20025;-55
2022/06/26 10:35:11;;;;;;;11.55;4.03;;;30.20;58.40;;;;;;5038120;28;20021;-55
2022/06/26 10:37:43;;;;;;;9.38;4.15;;;30.20;58.30;;;;;;5037656;28;20037;-54
2022/06/26 10:43:13;;;;;;;8.48;3.83;;;30.20;56.70;;;;;;5043594;28;20126;-54
2022/06/26 10:45:40;;;;;;;6.55;3.30;;;30.50;58.60;;;;;;5043349;28;20599;-53
2022/06/26 10:48:18;;;;;;;5.00;3.45;;;30.70;55.80;;;;;;5042687;28;20095;-56
2022/06/26 10:50:54;;;;;;;6.13;3.50;;;30.40;55.10;;;;;;5042837;28;20018;-54
2022/06/26 10:53:35;;;;;;;7.70;3.70;;;30.20;56.30;;;;;;5042560;28;20029;-54
2022/06/26 10:56:03;;;;;;;5.53;3.55;;;30.30;56.90;;;;;;5034773;28;20485;-54
2022/06/26 10:58:39;;;;;;;6.82;4.00;;;30.30;56.10;;;;;;5033383;28;20022;-54
2022/06/26 11:01:07;;;;;;;3.30;2.65;;;30.10;55.90;;;;;;5034331;28;20399;-54
2022/06/26 11:03:33;;;;;;;7.85;3.67;;;30.20;55.80;;;;;;5033338;28;20116;-54
2022/06/26 11:06:15;;;;;;;9.52;3.70;;;30.30;56.70;;;;;;5034764;28;20036;-54
2022/06/26 11:08:52;;;;;;;5.22;3.40;;;30.70;56.90;;;;;;5034647;28;20099;-54
2022/06/26 11:11:17;;;;;;;6.80;3.95;;;30.50;55.60;;;;;;5034723;28;20076;-54
2022/06/26 11:13:56;;;;;;;5.32;3.45;;;30.20;54.40;;;;;;5036676;28;20029;-55
2022/06/26 11:16:43;;;;;;;5.82;3.75;;;30.10;56.30;;;;;;5039021;28;20393;-54
2022/06/26 11:19:30;;;;;;;7.47;3.78;;;30.20;55.70;;;;;;5041500;28;21391;-53
2022/06/26 11:22:08;;;;;;;9.25;3.53;;;30.10;54.70;;;;;;5039215;28;20055;-53
2022/06/26 11:24:36;;;;;;;8.13;3.67;;;30.20;55.80;;;;;;5041867;28;20494;-54
2022/06/26 11:27:02;;;;;;;4.97;3.47;;;30.30;55.10;;;;;;5042156;28;20408;-55
2022/06/26 11:29:28;;;;;;;4.40;3.30;;;30.50;54.50;;;;;;5042731;28;20129;-55
2022/06/26 11:31:54;;;;;;;6.00;3.63;;;30.70;54.20;;;;;;5043387;28;20203;-56
2022/06/26 11:34:20;;;;;;;12.90;4.53;;;30.70;54.20;;;;;;5043572;28;20104;-55
2022/06/26 11:36:50;;;;;;;5.63;3.15;;;31.20;54.90;;;;;;5038730;28;20131;-55
2022/06/26 11:39:17;;;;;;;4.75;3.50;;;31.10;53.50;;;;;;5038504;28;20032;-54
2022/06/26 11:41:42;;;;;;;5.05;3.13;;;31.40;52.30;;;;;;5041814;28;20444;-54
2022/06/26 11:44:08;;;;;;;6.38;3.55;;;31.40;54.20;;;;;;5043160;28;20032;-54
2022/06/26 11:46:34;;;;;;;4.47;2.90;;;31.70;56.70;;;;;;5051692;28;20112;-55
2022/06/26 11:49:00;;;;;;;6.25;3.13;;;31.70;52.10;;;;;;5052991;28;20102;-53
2022/06/26 11:51:32;;;;;;;8.27;3.35;;;31.60;50.80;;;;;;5049002;28;20481;-54
2022/06/26 11:53:59;;;;;;;4.65;3.45;;;31.30;52.20;;;;;;5041296;28;20018;-55
2022/06/26 11:56:27;;;;;;;4.82;3.15;;;31.20;51.90;;;;;;5042851;28;20737;-54
2022/06/26 11:58:57;;;;;;;3.85;3.00;;;31.00;52.10;;;;;;5043969;28;20038;-54
2022/06/26 12:01:31;;;;;;;8.88;3.10;;;31.00;52.00;;;;;;5041913;28;20037;-56
2022/06/26 12:03:57;;;;;;;5.93;3.17;;;31.10;54.80;;;;;;5043848;28;20714;-54
2022/06/26 12:06:35;;;;;;;14.43;3.40;;;31.40;51.50;;;;;;5047606;28;20059;-56
2022/06/26 12:09:15;;;;;;;8.45;3.38;;;31.40;51.90;;;;;;5052579;28;20029;-56
2022/06/26 12:11:42;;;;;;;5.32;2.80;;;31.30;51.20;;;;;;5052281;28;20025;-53
2022/06/26 12:14:13;;;;;;;5.20;3.00;;;32.40;51.50;;;;;;5051912;28;20017;-53
2022/06/26 12:16:52;;;;;;;4.03;3.03;;;32.50;51.60;;;;;;5052225;28;20541;-54
2022/06/26 12:19:19;;;;;;;6.28;3.03;;;32.70;51.50;;;;;;5052335;28;20420;-54
2022/06/26 12:21:46;;;;;;;4.60;2.60;;;32.90;51.80;;;;;;5052249;28;20064;-56
2022/06/26 12:24:13;;;;;;;8.75;3.10;;;32.90;48.00;;;;;;5051758;28;20037;-53
2022/06/26 12:26:40;;;;;;;7.20;2.85;;;33.10;49.20;;;;;;5051607;28;20052;-54
2022/06/26 12:29:15;;;;;;;6.40;3.10;;;33.20;49.50;;;;;;5050403;28;20035;-54
2022/06/26 12:31:42;;;;;;;4.53;3.00;;;31.90;48.40;;;;;;5051800;28;20384;-54
2022/06/26 12:34:08;;;;;;;;;;;31.90;49.10;;;;;;5052070;28;20047;-53
2022/06/26 12:36:35;;;;;;;3.88;2.72;;;31.70;51.10;;;;;;5051631;28;20332;-56
2022/06/26 12:39:02;;;;;;;;;;;31.90;49.40;;;;;;5052252;28;20037;-54
2022/06/26 12:41:27;;;;;;;4.85;2.95;;;31.80;49.40;;;;;;5051467;28;20485;-54
2022/06/26 12:43:55;;;;;;;6.13;3.40;;;31.90;50.10;;;;;;5051763;28;20029;-54
2022/06/26 12:46:21;;;;;;;7.47;3.50;;;32.10;50.70;;;;;;5050438;28;20025;-54
2022/06/26 12:48:48;;;;;;;4.30;3.38;;;32.50;50.90;;;;;;5052180;28;20099;-55
2022/06/26 12:51:15;;;;;;;8.65;3.75;;;32.70;49.90;;;;;;5052027;28;20029;-54
2022/06/26 12:53:41;;;;;;;;;;;33.10;50.50;;;;;;5052100;28;20032;-55
2022/06/26 12:56:08;;;;;;;4.63;2.92;;;33.60;50.70;;;;;;5051638;28;20025;-55